sensor_id;sensor_type;location;lat;lon;timestamp;pressure;altitude;pressure_sealevel;temperature
59521;BMP280;54898;40.918;14.476;2022-08-06T00:00:00;97913.94;;;32.79
59521;BMP280;54898;40.918;14.476;2022-08-06T00:02:29;97169.94;;;32.69
59521;BMP280;54898;40.918;14.476;2022-08-06T00:04:56;97526.13;;;32.67
59521;BMP280;54898;40.918;14.476;2022-08-06T00:07:23;97933.00;;;32.83
59521;BMP280;54898;40.918;14.476;2022-08-06T00:09:50;98178.78;;;32.83
59521;BMP280;54898;40.918;14.476;2022-08-06T00:12:17;98741.53;;;32.93
59521;BMP280;54898;40.918;14.476;2022-08-06T00:14:45;98376.94;;;33.06
59521;BMP280;54898;40.918;14.476;2022-08-06T00:17:12;98461.59;;;33.11
59521;BMP280;54898;40.918;14.476;2022-08-06T00:19:38;98438.72;;;33.12
59521;BMP280;54898;40.918;14.476;2022-08-06T00:22:05;97964.75;;;33.08
59521;BMP280;54898;40.918;14.476;2022-08-06T00:24:31;98259.50;;;33.10
59521;BMP280;54898;40.918;14.476;2022-08-06T00:26:58;98355.53;;;33.09
59521;BMP280;54898;40.918;14.476;2022-08-06T00:29:25;98452.66;;;33.12
59521;BMP280;54898;40.918;14.476;2022-08-06T00:31:53;98743.38;;;33.15
59521;BMP280;54898;40.918;14.476;2022-08-06T00:34:20;98497.13;;;33.20
59521;BMP280;54898;40.918;14.476;2022-08-06T00:36:46;99009.88;;;33.35
59521;BMP280;54898;40.918;14.476;2022-08-06T00:39:13;98644.38;;;33.31
59521;BMP280;54898;40.918;14.476;2022-08-06T00:41:40;98243.53;;;33.10
59521;BMP280;54898;40.918;14.476;2022-08-06T00:44:06;97829.31;;;33.03
59521;BMP280;54898;40.918;14.476;2022-08-06T00:46:33;97967.25;;;33.04
59521;BMP280;54898;40.918;14.476;2022-08-06T00:49:01;98022.09;;;33.02
59521;BMP280;54898;40.918;14.476;2022-08-06T00:51:28;97969.50;;;32.87
59521;BMP280;54898;40.918;14.476;2022-08-06T00:53:55;98667.53;;;32.99
59521;BMP280;54898;40.918;14.476;2022-08-06T00:56:21;98381.09;;;32.88
59521;BMP280;54898;40.918;14.476;2022-08-06T00:58:48;98460.41;;;32.87
59521;BMP280;54898;40.918;14.476;2022-08-06T01:01:15;97476.81;;;32.91
59521;BMP280;54898;40.918;14.476;2022-08-06T01:03:42;97952.19;;;32.98
59521;BMP280;54898;40.918;14.476;2022-08-06T01:06:10;98574.47;;;32.85
59521;BMP280;54898;40.918;14.476;2022-08-06T01:08:37;98040.00;;;32.89
59521;BMP280;54898;40.918;14.476;2022-08-06T01:11:04;98076.78;;;32.88
59521;BMP280;54898;40.918;14.476;2022-08-06T01:13:35;97710.63;;;32.58
59521;BMP280;54898;40.918;14.476;2022-08-06T01:16:09;98293.69;;;32.74
59521;BMP280;54898;40.918;14.476;2022-08-06T01:18:44;98223.84;;;32.63
59521;BMP280;54898;40.918;14.476;2022-08-06T01:21:27;97584.28;;;32.42
59521;BMP280;54898;40.918;14.476;2022-08-06T01:24:23;97939.63;;;32.49
59521;BMP280;54898;40.918;14.476;2022-08-06T01:27:16;97398.00;;;32.44
59521;BMP280;54898;40.918;14.476;2022-08-06T01:29:51;98540.81;;;32.57
59521;BMP280;54898;40.918;14.476;2022-08-06T01:32:25;98453.41;;;32.69
59521;BMP280;54898;40.918;14.476;2022-08-06T01:34:57;99013.16;;;32.77
59521;BMP280;54898;40.918;14.476;2022-08-06T01:37:30;99246.56;;;32.93
59521;BMP280;54898;40.918;14.476;2022-08-06T01:40:00;99085.72;;;32.94
59521;BMP280;54898;40.918;14.476;2022-08-06T01:42:31;99062.09;;;33.02
59521;BMP280;54898;40.918;14.476;2022-08-06T01:45:08;98803.44;;;33.08
59521;BMP280;54898;40.918;14.476;2022-08-06T02:03:06;98008.44;;;32.39
59521;BMP280;54898;40.918;14.476;2022-08-06T02:05:42;97735.00;;;32.29
59521;BMP280;54898;40.918;14.476;2022-08-06T02:08:26;98608.88;;;32.39
59521;BMP280;54898;40.918;14.476;2022-08-06T02:11:04;98361.75;;;32.20
59521;BMP280;54898;40.918;14.476;2022-08-06T02:13:35;97587.75;;;32.22
59521;BMP280;54898;40.918;14.476;2022-08-06T02:16:06;97526.03;;;32.04
59521;BMP280;54898;40.918;14.476;2022-08-06T02:18:37;97965.66;;;32.25
59521;BMP280;54898;40.918;14.476;2022-08-06T02:21:13;98697.97;;;32.39
59521;BMP280;54898;40.918;14.476;2022-08-06T02:23:43;98554.84;;;32.42
59521;BMP280;54898;40.918;14.476;2022-08-06T02:26:14;98721.69;;;32.40
59521;BMP280;54898;40.918;14.476;2022-08-06T02:28:42;99298.03;;;32.70
59521;BMP280;54898;40.918;14.476;2022-08-06T02:31:10;98995.63;;;32.52
59521;BMP280;54898;40.918;14.476;2022-08-06T02:33:39;98653.44;;;32.80
59521;BMP280;54898;40.918;14.476;2022-08-06T02:36:14;98187.53;;;32.70
59521;BMP280;54898;40.918;14.476;2022-08-06T02:38:48;98873.13;;;32.76
59521;BMP280;54898;40.918;14.476;2022-08-06T02:41:20;98701.47;;;32.39
59521;BMP280;54898;40.918;14.476;2022-08-06T02:43:50;99308.44;;;32.84
59521;BMP280;54898;40.918;14.476;2022-08-06T02:46:23;98997.28;;;32.47
59521;BMP280;54898;40.918;14.476;2022-08-06T02:49:45;97799.72;;;32.39
59521;BMP280;54898;40.918;14.476;2022-08-06T02:52:17;97970.66;;;32.36
59521;BMP280;54898;40.918;14.476;2022-08-06T02:54:50;98517.53;;;32.45
59521;BMP280;54898;40.918;14.476;2022-08-06T02:57:24;98099.50;;;32.29
59521;BMP280;54898;40.918;14.476;2022-08-06T02:59:54;98383.84;;;32.18
59521;BMP280;54898;40.918;14.476;2022-08-06T03:02:30;98130.59;;;32.35
59521;BMP280;54898;40.918;14.476;2022-08-06T03:05:00;98370.47;;;32.51
59521;BMP280;54898;40.918;14.476;2022-08-06T03:07:32;98324.25;;;32.21
59521;BMP280;54898;40.918;14.476;2022-08-06T03:10:01;98642.72;;;32.52
59521;BMP280;54898;40.918;14.476;2022-08-06T03:12:28;98651.59;;;32.58
59521;BMP280;54898;40.918;14.476;2022-08-06T03:14:55;98680.69;;;32.65
59521;BMP280;54898;40.918;14.476;2022-08-06T03:17:24;98496.81;;;32.72
59521;BMP280;54898;40.918;14.476;2022-08-06T03:19:54;98277.25;;;32.42
59521;BMP280;54898;40.918;14.476;2022-08-06T03:25:13;98962.09;;;32.74
59521;BMP280;54898;40.918;14.476;2022-08-06T03:27:42;99794.00;;;33.05
59521;BMP280;54898;40.918;14.476;2022-08-06T03:30:11;99445.25;;;33.24
59521;BMP280;54898;40.918;14.476;2022-08-06T03:32:38;99255.88;;;32.88
59521;BMP280;54898;40.918;14.476;2022-08-06T03:35:06;98697.66;;;33.01
59521;BMP280;54898;40.918;14.476;2022-08-06T03:37:33;98382.63;;;32.72
59521;BMP280;54898;40.918;14.476;2022-08-06T03:40:02;98469.41;;;32.78
59521;BMP280;54898;40.918;14.476;2022-08-06T03:42:30;98320.78;;;32.74
59521;BMP280;54898;40.918;14.476;2022-08-06T03:44:58;98193.13;;;32.70
59521;BMP280;54898;40.918;14.476;2022-08-06T03:47:27;98523.59;;;32.68
59521;BMP280;54898;40.918;14.476;2022-08-06T03:50:02;98154.88;;;32.71
59521;BMP280;54898;40.918;14.476;2022-08-06T03:52:32;98433.44;;;32.63
59521;BMP280;54898;40.918;14.476;2022-08-06T03:55:04;98581.91;;;32.66
59521;BMP280;54898;40.918;14.476;2022-08-06T03:57:35;99211.28;;;32.88
59521;BMP280;54898;40.918;14.476;2022-08-06T04:00:04;98371.59;;;32.65
59521;BMP280;54898;40.918;14.476;2022-08-06T04:02:41;98750.34;;;32.82
59521;BMP280;54898;40.918;14.476;2022-08-06T04:05:10;98949.81;;;32.85
59521;BMP280;54898;40.918;14.476;2022-08-06T04:07:37;98673.13;;;32.82
59521;BMP280;54898;40.918;14.476;2022-08-06T04:10:05;98066.94;;;32.68
59521;BMP280;54898;40.918;14.476;2022-08-06T04:12:33;98498.44;;;32.75
59521;BMP280;54898;40.918;14.476;2022-08-06T04:15:01;98326.78;;;32.70
59521;BMP280;54898;40.918;14.476;2022-08-06T04:17:28;98087.75;;;32.67
59521;BMP280;54898;40.918;14.476;2022-08-06T04:19:57;98675.63;;;32.71
59521;BMP280;54898;40.918;14.476;2022-08-06T04:22:24;98087.41;;;32.53
59521;BMP280;54898;40.918;14.476;2022-08-06T04:24:51;98089.63;;;32.45
59521;BMP280;54898;40.918;14.476;2022-08-06T04:27:19;98203.19;;;32.56
59521;BMP280;54898;40.918;14.476;2022-08-06T04:29:48;98388.75;;;32.44
59521;BMP280;54898;40.918;14.476;2022-08-06T04:32:16;98358.72;;;32.43
59521;BMP280;54898;40.918;14.476;2022-08-06T04:34:45;98675.03;;;32.48
59521;BMP280;54898;40.918;14.476;2022-08-06T04:37:12;98911.28;;;32.66
59521;BMP280;54898;40.918;14.476;2022-08-06T04:39:39;98460.38;;;32.61
59521;BMP280;54898;40.918;14.476;2022-08-06T04:42:06;99441.06;;;32.87
59521;BMP280;54898;40.918;14.476;2022-08-06T04:44:33;100148.06;;;33.05
59521;BMP280;54898;40.918;14.476;2022-08-06T04:47:03;99790.91;;;33.16
59521;BMP280;54898;40.918;14.476;2022-08-06T04:49:30;100304.91;;;33.32
59521;BMP280;54898;40.918;14.476;2022-08-06T04:51:57;100291.94;;;33.47
59521;BMP280;54898;40.918;14.476;2022-08-06T04:54:24;100385.53;;;33.61
59521;BMP280;54898;40.918;14.476;2022-08-06T04:56:50;100338.03;;;33.74
59521;BMP280;54898;40.918;14.476;2022-08-06T04:59:17;100152.88;;;33.51
59521;BMP280;54898;40.918;14.476;2022-08-06T05:01:44;99502.31;;;33.75
59521;BMP280;54898;40.918;14.476;2022-08-06T05:04:12;100939.81;;;34.25
59521;BMP280;54898;40.918;14.476;2022-08-06T05:06:44;101247.69;;;34.47
59521;BMP280;54898;40.918;14.476;2022-08-06T05:09:15;99491.53;;;34.48
59521;BMP280;54898;40.918;14.476;2022-08-06T05:11:47;100912.72;;;34.51
59521;BMP280;54898;40.918;14.476;2022-08-06T05:14:20;101540.44;;;34.82
59521;BMP280;54898;40.918;14.476;2022-08-06T05:16:48;100921.88;;;34.83
59521;BMP280;54898;40.918;14.476;2022-08-06T05:19:35;100899.28;;;34.94
59521;BMP280;54898;40.918;14.476;2022-08-06T05:22:06;100815.59;;;35.09
59521;BMP280;54898;40.918;14.476;2022-08-06T05:24:35;101588.00;;;35.46
59521;BMP280;54898;40.918;14.476;2022-08-06T05:27:03;101659.81;;;35.68
59521;BMP280;54898;40.918;14.476;2022-08-06T05:29:30;101130.31;;;35.79
59521;BMP280;54898;40.918;14.476;2022-08-06T05:31:58;100645.13;;;35.86
59521;BMP280;54898;40.918;14.476;2022-08-06T05:34:25;100283.25;;;35.65
59521;BMP280;54898;40.918;14.476;2022-08-06T05:36:53;100907.22;;;35.81
59521;BMP280;54898;40.918;14.476;2022-08-06T05:39:20;101005.66;;;36.11
59521;BMP280;54898;40.918;14.476;2022-08-06T05:41:49;101563.59;;;36.63
59521;BMP280;54898;40.918;14.476;2022-08-06T05:44:16;102481.84;;;37.26
59521;BMP280;54898;40.918;14.476;2022-08-06T05:46:48;102047.72;;;37.55
59521;BMP280;54898;40.918;14.476;2022-08-06T05:49:21;101508.28;;;37.60
59521;BMP280;54898;40.918;14.476;2022-08-06T05:51:56;101779.47;;;37.61
59521;BMP280;54898;40.918;14.476;2022-08-06T05:54:30;101795.16;;;37.83
59521;BMP280;54898;40.918;14.476;2022-08-06T05:57:00;101674.56;;;37.85
59521;BMP280;54898;40.918;14.476;2022-08-06T05:59:29;101325.56;;;38.07
59521;BMP280;54898;40.918;14.476;2022-08-06T06:01:58;100849.00;;;38.06
59521;BMP280;54898;40.918;14.476;2022-08-06T06:04:25;101007.94;;;38.07
59521;BMP280;54898;40.918;14.476;2022-08-06T06:06:54;102000.09;;;38.62
59521;BMP280;54898;40.918;14.476;2022-08-06T06:09:21;101562.44;;;38.81
59521;BMP280;54898;40.918;14.476;2022-08-06T06:11:48;101579.59;;;38.91
59521;BMP280;54898;40.918;14.476;2022-08-06T06:14:35;101941.38;;;39.31
59521;BMP280;54898;40.918;14.476;2022-08-06T06:17:23;101594.19;;;39.38
59521;BMP280;54898;40.918;14.476;2022-08-06T06:19:56;100769.06;;;39.15
59521;BMP280;54898;40.918;14.476;2022-08-06T06:22:30;101157.97;;;39.04
59521;BMP280;54898;40.918;14.476;2022-08-06T06:25:04;101910.78;;;39.48
59521;BMP280;54898;40.918;14.476;2022-08-06T06:27:39;101846.94;;;40.19
59521;BMP280;54898;40.918;14.476;2022-08-06T06:30:15;102256.72;;;40.66
59521;BMP280;54898;40.918;14.476;2022-08-06T06:32:48;101869.09;;;40.86
59521;BMP280;54898;40.918;14.476;2022-08-06T06:35:22;101728.88;;;41.26
59521;BMP280;54898;40.918;14.476;2022-08-06T06:37:58;102139.88;;;42.11
59521;BMP280;54898;40.918;14.476;2022-08-06T06:40:39;102224.72;;;42.76
59521;BMP280;54898;40.918;14.476;2022-08-06T06:43:12;101460.06;;;43.46
59521;BMP280;54898;40.918;14.476;2022-08-06T06:45:44;101218.47;;;44.14
59521;BMP280;54898;40.918;14.476;2022-08-06T06:48:18;101713.63;;;44.48
59521;BMP280;54898;40.918;14.476;2022-08-06T06:50:49;101775.44;;;46.07
59521;BMP280;54898;40.918;14.476;2022-08-06T06:53:19;101459.13;;;46.33
59521;BMP280;54898;40.918;14.476;2022-08-06T06:55:51;100369.06;;;45.97
59521;BMP280;54898;40.918;14.476;2022-08-06T06:58:22;100488.91;;;45.65
59521;BMP280;54898;40.918;14.476;2022-08-06T07:00:51;101215.75;;;46.69
59521;BMP280;54898;40.918;14.476;2022-08-06T07:03:19;101384.63;;;46.92
59521;BMP280;54898;40.918;14.476;2022-08-06T07:05:48;101648.13;;;49.47
59521;BMP280;54898;40.918;14.476;2022-08-06T07:08:17;100624.75;;;49.15
59521;BMP280;54898;40.918;14.476;2022-08-06T07:10:46;101152.16;;;50.53
59521;BMP280;54898;40.918;14.476;2022-08-06T07:13:14;100725.22;;;49.77
59521;BMP280;54898;40.918;14.476;2022-08-06T07:15:42;101078.63;;;50.42
59521;BMP280;54898;40.918;14.476;2022-08-06T07:18:10;100934.91;;;50.84
59521;BMP280;54898;40.918;14.476;2022-08-06T07:20:38;100819.78;;;50.16
59521;BMP280;54898;40.918;14.476;2022-08-06T07:23:06;100026.16;;;47.08
59521;BMP280;54898;40.918;14.476;2022-08-06T07:25:37;101048.28;;;48.50
59521;BMP280;54898;40.918;14.476;2022-08-06T07:28:07;99750.91;;;47.81
59521;BMP280;54898;40.918;14.476;2022-08-06T07:30:35;101130.38;;;47.82
59521;BMP280;54898;40.918;14.476;2022-08-06T07:33:02;100056.03;;;46.74
59521;BMP280;54898;40.918;14.476;2022-08-06T07:35:29;100520.47;;;49.35
59521;BMP280;54898;40.918;14.476;2022-08-06T07:38:01;100914.81;;;49.27
59521;BMP280;54898;40.918;14.476;2022-08-06T07:40:30;100873.41;;;48.82
59521;BMP280;54898;40.918;14.476;2022-08-06T07:43:01;101359.16;;;49.76
59521;BMP280;54898;40.918;14.476;2022-08-06T07:45:32;100164.66;;;48.02
59521;BMP280;54898;40.918;14.476;2022-08-06T07:48:00;101488.06;;;49.78
59521;BMP280;54898;40.918;14.476;2022-08-06T07:50:31;100733.97;;;49.11
59521;BMP280;54898;40.918;14.476;2022-08-06T07:52:58;101300.94;;;50.31
59521;BMP280;54898;40.918;14.476;2022-08-06T07:55:27;100199.72;;;48.05
59521;BMP280;54898;40.918;14.476;2022-08-06T07:57:54;101139.91;;;51.02
59521;BMP280;54898;40.918;14.476;2022-08-06T08:00:22;101131.19;;;52.34
59521;BMP280;54898;40.918;14.476;2022-08-06T08:02:52;100654.28;;;51.86
59521;BMP280;54898;40.918;14.476;2022-08-06T08:05:38;101261.66;;;54.06
59521;BMP280;54898;40.918;14.476;2022-08-06T08:08:24;100730.78;;;52.51
59521;BMP280;54898;40.918;14.476;2022-08-06T08:10:52;100885.56;;;53.41
59521;BMP280;54898;40.918;14.476;2022-08-06T08:13:21;100523.66;;;52.41
59521;BMP280;54898;40.918;14.476;2022-08-06T08:15:48;101326.47;;;54.31
59521;BMP280;54898;40.918;14.476;2022-08-06T08:18:17;100815.63;;;53.97
59521;BMP280;54898;40.918;14.476;2022-08-06T08:20:44;101228.84;;;55.74
59521;BMP280;54898;40.918;14.476;2022-08-06T08:23:12;100698.22;;;54.33
59521;BMP280;54898;40.918;14.476;2022-08-06T08:25:39;100968.38;;;53.72
59521;BMP280;54898;40.918;14.476;2022-08-06T08:28:07;101243.31;;;55.41
59521;BMP280;54898;40.918;14.476;2022-08-06T08:30:36;101049.16;;;55.79
59521;BMP280;54898;40.918;14.476;2022-08-06T08:33:03;100968.47;;;54.36
59521;BMP280;54898;40.918;14.476;2022-08-06T08:35:31;101184.25;;;56.71
59521;BMP280;54898;40.918;14.476;2022-08-06T08:37:58;100633.47;;;56.03
59521;BMP280;54898;40.918;14.476;2022-08-06T08:40:25;100704.84;;;54.84
59521;BMP280;54898;40.918;14.476;2022-08-06T08:42:53;100588.75;;;53.56
59521;BMP280;54898;40.918;14.476;2022-08-06T08:45:22;100389.06;;;50.44
59521;BMP280;54898;40.918;14.476;2022-08-06T08:47:51;100231.28;;;51.14
59521;BMP280;54898;40.918;14.476;2022-08-06T08:50:19;100236.22;;;52.00
59521;BMP280;54898;40.918;14.476;2022-08-06T08:52:50;100333.72;;;52.27
59521;BMP280;54898;40.918;14.476;2022-08-06T08:55:20;101170.78;;;54.01
59521;BMP280;54898;40.918;14.476;2022-08-06T08:57:48;101075.47;;;56.01
59521;BMP280;54898;40.918;14.476;2022-08-06T09:00:18;100752.91;;;56.32
59521;BMP280;54898;40.918;14.476;2022-08-06T09:02:45;100874.31;;;55.74
59521;BMP280;54898;40.918;14.476;2022-08-06T09:05:12;100990.88;;;57.13
59521;BMP280;54898;40.918;14.476;2022-08-06T09:07:39;101027.38;;;57.50
59521;BMP280;54898;40.918;14.476;2022-08-06T09:10:09;101140.94;;;58.27
59521;BMP280;54898;40.918;14.476;2022-08-06T09:12:36;101130.47;;;59.39
59521;BMP280;54898;40.918;14.476;2022-08-06T09:15:04;100421.91;;;56.25
59521;BMP280;54898;40.918;14.476;2022-08-06T09:17:31;101224.31;;;58.25
59521;BMP280;54898;40.918;14.476;2022-08-06T09:19:58;100508.19;;;56.90
59521;BMP280;54898;40.918;14.476;2022-08-06T09:22:24;100500.09;;;56.52
59521;BMP280;54898;40.918;14.476;2022-08-06T09:24:51;100954.91;;;57.40
59521;BMP280;54898;40.918;14.476;2022-08-06T09:27:19;100586.88;;;56.60
59521;BMP280;54898;40.918;14.476;2022-08-06T09:29:51;100782.19;;;56.73
59521;BMP280;54898;40.918;14.476;2022-08-06T09:32:36;99946.16;;;54.35
59521;BMP280;54898;40.918;14.476;2022-08-06T09:35:03;100186.81;;;53.27
59521;BMP280;54898;40.918;14.476;2022-08-06T09:37:41;100088.19;;;52.72
59521;BMP280;54898;40.918;14.476;2022-08-06T09:40:11;100271.94;;;52.62
59521;BMP280;54898;40.918;14.476;2022-08-06T09:42:41;100260.41;;;52.24
59521;BMP280;54898;40.918;14.476;2022-08-06T09:45:10;100334.00;;;52.08
59521;BMP280;54898;40.918;14.476;2022-08-06T09:47:38;100581.59;;;52.61
59521;BMP280;54898;40.918;14.476;2022-08-06T09:50:05;100355.47;;;51.76
59521;BMP280;54898;40.918;14.476;2022-08-06T09:52:32;100131.69;;;51.46
59521;BMP280;54898;40.918;14.476;2022-08-06T09:54:59;99887.13;;;50.46
59521;BMP280;54898;40.918;14.476;2022-08-06T09:57:27;99612.78;;;48.85
59521;BMP280;54898;40.918;14.476;2022-08-06T09:59:58;99948.47;;;48.63
59521;BMP280;54898;40.918;14.476;2022-08-06T10:02:25;99831.59;;;48.71
59521;BMP280;54898;40.918;14.476;2022-08-06T10:04:52;99638.72;;;48.43
59521;BMP280;54898;40.918;14.476;2022-08-06T10:07:28;100071.06;;;48.18
59521;BMP280;54898;40.918;14.476;2022-08-06T10:09:56;99955.75;;;49.13
59521;BMP280;54898;40.918;14.476;2022-08-06T10:12:24;98060.00;;;47.04
59521;BMP280;54898;40.918;14.476;2022-08-06T10:14:51;99950.00;;;47.45
59521;BMP280;54898;40.918;14.476;2022-08-06T10:17:20;100356.75;;;48.07
59521;BMP280;54898;40.918;14.476;2022-08-06T10:22:30;99018.31;;;46.54
59521;BMP280;54898;40.918;14.476;2022-08-06T10:24:59;100086.44;;;46.06
59521;BMP280;54898;40.918;14.476;2022-08-06T10:27:30;100201.50;;;47.44
59521;BMP280;54898;40.918;14.476;2022-08-06T10:30:02;100420.94;;;47.73
59521;BMP280;54898;40.918;14.476;2022-08-06T10:32:34;99759.06;;;47.90
59521;BMP280;54898;40.918;14.476;2022-08-06T10:35:04;100246.19;;;47.72
59521;BMP280;54898;40.918;14.476;2022-08-06T10:37:31;99905.88;;;48.07
59521;BMP280;54898;40.918;14.476;2022-08-06T10:40:01;99720.38;;;47.23
59521;BMP280;54898;40.918;14.476;2022-08-06T10:42:28;99676.41;;;46.50
59521;BMP280;54898;40.918;14.476;2022-08-06T10:44:56;100229.06;;;47.22
59521;BMP280;54898;40.918;14.476;2022-08-06T10:47:24;99630.88;;;47.73
59521;BMP280;54898;40.918;14.476;2022-08-06T10:49:55;100166.00;;;47.82
59521;BMP280;54898;40.918;14.476;2022-08-06T10:52:23;98934.59;;;47.49
59521;BMP280;54898;40.918;14.476;2022-08-06T10:54:50;100119.00;;;47.48
59521;BMP280;54898;40.918;14.476;2022-08-06T10:57:17;99914.44;;;47.29
59521;BMP280;54898;40.918;14.476;2022-08-06T10:59:45;99448.09;;;47.18
59521;BMP280;54898;40.918;14.476;2022-08-06T11:02:21;99977.78;;;46.42
59521;BMP280;54898;40.918;14.476;2022-08-06T11:04:56;99821.31;;;45.15
59521;BMP280;54898;40.918;14.476;2022-08-06T11:08:05;98605.78;;;44.66
59521;BMP280;54898;40.918;14.476;2022-08-06T11:10:50;99214.28;;;43.93
59521;BMP280;54898;40.918;14.476;2022-08-06T11:13:27;99707.59;;;44.22
59521;BMP280;54898;40.918;14.476;2022-08-06T11:15:56;100099.09;;;44.76
59521;BMP280;54898;40.918;14.476;2022-08-06T11:18:23;99882.56;;;44.89
59521;BMP280;54898;40.918;14.476;2022-08-06T11:20:52;98762.84;;;44.12
59521;BMP280;54898;40.918;14.476;2022-08-06T11:23:24;99624.94;;;44.14
59521;BMP280;54898;40.918;14.476;2022-08-06T11:25:53;99456.50;;;44.21
59521;BMP280;54898;40.918;14.476;2022-08-06T11:28:20;98684.41;;;43.78
59521;BMP280;54898;40.918;14.476;2022-08-06T11:31:07;99784.53;;;44.01
59521;BMP280;54898;40.918;14.476;2022-08-06T11:34:02;99177.91;;;43.24
59521;BMP280;54898;40.918;14.476;2022-08-06T11:36:47;99541.63;;;43.48
59521;BMP280;54898;40.918;14.476;2022-08-06T11:39:15;99713.88;;;43.65
59521;BMP280;54898;40.918;14.476;2022-08-06T11:41:47;99000.25;;;43.57
59521;BMP280;54898;40.918;14.476;2022-08-06T11:44:14;99671.50;;;43.13
59521;BMP280;54898;40.918;14.476;2022-08-06T11:46:45;99469.00;;;43.41
59521;BMP280;54898;40.918;14.476;2022-08-06T11:49:21;99875.78;;;43.32
59521;BMP280;54898;40.918;14.476;2022-08-06T11:51:59;97808.38;;;41.91
59521;BMP280;54898;40.918;14.476;2022-08-06T11:54:28;99969.63;;;43.27
59521;BMP280;54898;40.918;14.476;2022-08-06T11:57:17;99373.63;;;43.30
59521;BMP280;54898;40.918;14.476;2022-08-06T11:59:46;99628.06;;;42.81
59521;BMP280;54898;40.918;14.476;2022-08-06T12:05:04;100263.72;;;44.49
59521;BMP280;54898;40.918;14.476;2022-08-06T12:07:34;99778.41;;;44.07
59521;BMP280;54898;40.918;14.476;2022-08-06T12:10:09;99629.75;;;43.40
59521;BMP280;54898;40.918;14.476;2022-08-06T12:12:41;99322.19;;;42.77
59521;BMP280;54898;40.918;14.476;2022-08-06T12:15:35;99688.59;;;43.15
59521;BMP280;54898;40.918;14.476;2022-08-06T12:18:02;99599.88;;;43.10
59521;BMP280;54898;40.918;14.476;2022-08-06T12:20:31;99406.78;;;43.43
59521;BMP280;54898;40.918;14.476;2022-08-06T12:23:00;100178.16;;;43.32
59521;BMP280;54898;40.918;14.476;2022-08-06T12:25:29;99219.75;;;42.37
59521;BMP280;54898;40.918;14.476;2022-08-06T12:27:56;99367.06;;;41.89
59521;BMP280;54898;40.918;14.476;2022-08-06T12:30:23;99239.06;;;41.73
59521;BMP280;54898;40.918;14.476;2022-08-06T12:32:58;98901.63;;;41.47
59521;BMP280;54898;40.918;14.476;2022-08-06T12:35:25;98402.47;;;41.10
59521;BMP280;54898;40.918;14.476;2022-08-06T12:37:53;99285.06;;;41.23
59521;BMP280;54898;40.918;14.476;2022-08-06T12:40:22;99114.09;;;41.07
59521;BMP280;54898;40.918;14.476;2022-08-06T12:43:10;97963.03;;;39.83
59521;BMP280;54898;40.918;14.476;2022-08-06T12:45:38;98948.19;;;39.63
59521;BMP280;54898;40.918;14.476;2022-08-06T12:48:07;99060.09;;;39.51
59521;BMP280;54898;40.918;14.476;2022-08-06T12:50:35;99489.31;;;40.36
59521;BMP280;54898;40.918;14.476;2022-08-06T12:53:03;99424.47;;;40.59
59521;BMP280;54898;40.918;14.476;2022-08-06T12:55:32;98916.72;;;39.67
59521;BMP280;54898;40.918;14.476;2022-08-06T12:58:00;99491.91;;;40.00
59521;BMP280;54898;40.918;14.476;2022-08-06T13:00:27;98658.00;;;39.86
59521;BMP280;54898;40.918;14.476;2022-08-06T13:02:55;97737.75;;;39.28
59521;BMP280;54898;40.918;14.476;2022-08-06T13:05:23;98521.34;;;38.16
59521;BMP280;54898;40.918;14.476;2022-08-06T13:07:52;98430.28;;;38.08
59521;BMP280;54898;40.918;14.476;2022-08-06T13:10:19;98940.16;;;38.20
59521;BMP280;54898;40.918;14.476;2022-08-06T13:12:53;99335.84;;;38.14
59521;BMP280;54898;40.918;14.476;2022-08-06T13:15:21;98298.78;;;37.66
59521;BMP280;54898;40.918;14.476;2022-08-06T13:18:01;97467.91;;;37.58
59521;BMP280;54898;40.918;14.476;2022-08-06T13:20:36;97006.03;;;37.27
59521;BMP280;54898;40.918;14.476;2022-08-06T13:23:02;96783.16;;;37.48
59521;BMP280;54898;40.918;14.476;2022-08-06T13:25:39;97896.47;;;37.46
59521;BMP280;54898;40.918;14.476;2022-08-06T13:28:12;98967.94;;;38.05
59521;BMP280;54898;40.918;14.476;2022-08-06T13:30:40;99566.25;;;38.23
59521;BMP280;54898;40.918;14.476;2022-08-06T13:33:14;98982.88;;;38.18
59521;BMP280;54898;40.918;14.476;2022-08-06T13:35:41;99182.63;;;38.97
59521;BMP280;54898;40.918;14.476;2022-08-06T13:38:09;99731.31;;;39.18
59521;BMP280;54898;40.918;14.476;2022-08-06T13:40:41;98702.09;;;38.68
59521;BMP280;54898;40.918;14.476;2022-08-06T13:43:11;99113.94;;;38.35
59521;BMP280;54898;40.918;14.476;2022-08-06T13:45:38;99313.31;;;38.54
59521;BMP280;54898;40.918;14.476;2022-08-06T13:48:07;99306.19;;;38.83
59521;BMP280;54898;40.918;14.476;2022-08-06T13:50:35;99614.44;;;38.67
59521;BMP280;54898;40.918;14.476;2022-08-06T13:53:02;99740.44;;;39.37
59521;BMP280;54898;40.918;14.476;2022-08-06T13:55:29;98798.22;;;38.53
59521;BMP280;54898;40.918;14.476;2022-08-06T13:57:57;99529.94;;;38.65
59521;BMP280;54898;40.918;14.476;2022-08-06T14:00:25;99302.22;;;38.98
59521;BMP280;54898;40.918;14.476;2022-08-06T14:02:52;99183.22;;;39.28
59521;BMP280;54898;40.918;14.476;2022-08-06T14:05:19;99347.81;;;39.71
59521;BMP280;54898;40.918;14.476;2022-08-06T14:07:47;99800.13;;;39.64
59521;BMP280;54898;40.918;14.476;2022-08-06T14:10:14;100011.91;;;39.82
59521;BMP280;54898;40.918;14.476;2022-08-06T14:12:41;99682.75;;;40.09
59521;BMP280;54898;40.918;14.476;2022-08-06T14:15:09;98016.44;;;39.32
59521;BMP280;54898;40.918;14.476;2022-08-06T14:17:37;99680.63;;;40.09
59521;BMP280;54898;40.918;14.476;2022-08-06T14:20:05;100144.19;;;40.37
59521;BMP280;54898;40.918;14.476;2022-08-06T14:22:32;100222.84;;;41.29
59521;BMP280;54898;40.918;14.476;2022-08-06T14:24:58;99144.63;;;41.10
59521;BMP280;54898;40.918;14.476;2022-08-06T14:27:25;100024.25;;;41.69
59521;BMP280;54898;40.918;14.476;2022-08-06T14:29:52;99844.41;;;40.65
59521;BMP280;54898;40.918;14.476;2022-08-06T14:32:19;100162.91;;;41.40